sensor_id;sensor_type;location;lat;lon;timestamp;P1;durP1;ratioP1;P2;durP2;ratioP2
17199;SDS011;8716;52.268;20.968;2024-02-15T00:02:17;8.07;;;6.20;;
17199;SDS011;8716;52.268;20.968;2024-02-15T00:04:45;7.33;;;6.93;;
17199;SDS011;8716;52.268;20.968;2024-02-15T00:07:16;9.13;;;8.20;;
17199;SDS011;8716;52.268;20.968;2024-02-15T00:09:47;7.80;;;7.40;;
17199;SDS011;8716;52.268;20.968;2024-02-15T00:12:17;7.37;;;4.47;;
17199;SDS011;8716;52.268;20.968;2024-02-15T00:14:46;7.27;;;6.30;;
17199;SDS011;8716;52.268;20.968;2024-02-15T00:17:14;7.43;;;5.03;;
17199;SDS011;8716;52.268;20.968;2024-02-15T00:19:43;9.73;;;6.00;;
17199;SDS011;8716;52.268;20.968;2024-02-15T00:22:11;7.60;;;7.20;;
17199;SDS011;8716;52.268;20.968;2024-02-15T00:24:40;8.03;;;6.23;;
17199;SDS011;8716;52.268;20.968;2024-02-15T00:27:10;6.70;;;6.33;;
17199;SDS011;8716;52.268;20.968;2024-02-15T00:29:39;9.40;;;7.17;;
17199;SDS011;8716;52.268;20.968;2024-02-15T00:32:08;21.03;;;6.70;;
17199;SDS011;8716;52.268;20.968;2024-02-15T00:34:37;7.33;;;6.93;;
17199;SDS011;8716;52.268;20.968;2024-02-15T00:37:06;5.80;;;5.50;;
17199;SDS011;8716;52.268;20.968;2024-02-15T00:39:34;6.03;;;5.73;;
17199;SDS011;8716;52.268;20.968;2024-02-15T00:42:03;8.00;;;7.60;;
17199;SDS011;8716;52.268;20.968;2024-02-15T00:44:34;9.67;;;6.80;;
17199;SDS011;8716;52.268;20.968;2024-02-15T00:47:02;10.77;;;6.77;;
17199;SDS011;8716;52.268;20.968;2024-02-15T00:49:31;8.43;;;6.20;;
17199;SDS011;8716;52.268;20.968;2024-02-15T00:52:00;8.60;;;8.10;;
17199;SDS011;8716;52.268;20.968;2024-02-15T00:54:29;10.03;;;8.80;;
17199;SDS011;8716;52.268;20.968;2024-02-15T00:56:57;6.90;;;6.50;;
17199;SDS011;8716;52.268;20.968;2024-02-15T00:59:25;6.50;;;6.10;;
17199;SDS011;8716;52.268;20.968;2024-02-15T01:01:55;8.57;;;8.10;;
17199;SDS011;8716;52.268;20.968;2024-02-15T01:04:23;9.17;;;8.67;;
17199;SDS011;8716;52.268;20.968;2024-02-15T01:06:51;9.13;;;7.77;;
17199;SDS011;8716;52.268;20.968;2024-02-15T01:09:21;7.20;;;6.80;;
17199;SDS011;8716;52.268;20.968;2024-02-15T01:11:49;10.80;;;7.30;;
17199;SDS011;8716;52.268;20.968;2024-02-15T01:14:17;8.63;;;5.90;;
17199;SDS011;8716;52.268;20.968;2024-02-15T01:16:46;9.30;;;8.80;;
17199;SDS011;8716;52.268;20.968;2024-02-15T01:19:16;5.20;;;4.90;;
17199;SDS011;8716;52.268;20.968;2024-02-15T01:21:44;9.87;;;9.37;;
17199;SDS011;8716;52.268;20.968;2024-02-15T01:24:13;7.10;;;6.70;;
17199;SDS011;8716;52.268;20.968;2024-02-15T01:26:41;6.10;;;5.80;;
17199;SDS011;8716;52.268;20.968;2024-02-15T01:29:09;5.80;;;5.50;;
17199;SDS011;8716;52.268;20.968;2024-02-15T01:31:38;7.50;;;7.10;;
17199;SDS011;8716;52.268;20.968;2024-02-15T01:34:09;9.53;;;8.03;;
17199;SDS011;8716;52.268;20.968;2024-02-15T01:36:39;7.23;;;6.83;;
17199;SDS011;8716;52.268;20.968;2024-02-15T01:39:07;12.20;;;11.60;;
17199;SDS011;8716;52.268;20.968;2024-02-15T01:41:36;8.10;;;7.40;;
17199;SDS011;8716;52.268;20.968;2024-02-15T01:44:04;8.17;;;7.77;;
17199;SDS011;8716;52.268;20.968;2024-02-15T01:46:33;9.20;;;8.70;;
17199;SDS011;8716;52.268;20.968;2024-02-15T01:49:01;7.87;;;7.47;;
17199;SDS011;8716;52.268;20.968;2024-02-15T01:51:31;9.10;;;8.60;;
17199;SDS011;8716;52.268;20.968;2024-02-15T01:54:03;7.17;;;5.60;;
17199;SDS011;8716;52.268;20.968;2024-02-15T01:56:32;7.30;;;6.90;;
17199;SDS011;8716;52.268;20.968;2024-02-15T01:59:00;8.33;;;6.60;;
17199;SDS011;8716;52.268;20.968;2024-02-15T02:01:29;6.13;;;5.83;;
17199;SDS011;8716;52.268;20.968;2024-02-15T02:03:59;7.07;;;6.67;;
17199;SDS011;8716;52.268;20.968;2024-02-15T02:06:28;16.93;;;9.23;;
17199;SDS011;8716;52.268;20.968;2024-02-15T02:08:57;7.83;;;7.43;;
17199;SDS011;8716;52.268;20.968;2024-02-15T02:11:27;11.73;;;7.30;;
17199;SDS011;8716;52.268;20.968;2024-02-15T02:13:56;12.53;;;9.17;;
17199;SDS011;8716;52.268;20.968;2024-02-15T02:16:25;10.90;;;9.50;;
17199;SDS011;8716;52.268;20.968;2024-02-15T02:18:56;13.47;;;6.97;;
17199;SDS011;8716;52.268;20.968;2024-02-15T02:21:26;11.07;;;7.43;;
17199;SDS011;8716;52.268;20.968;2024-02-15T02:23:56;8.93;;;5.30;;
17199;SDS011;8716;52.268;20.968;2024-02-15T02:26:26;5.47;;;5.17;;
17199;SDS011;8716;52.268;20.968;2024-02-15T02:28:56;9.10;;;8.60;;
17199;SDS011;8716;52.268;20.968;2024-02-15T02:31:26;7.80;;;7.40;;
17199;SDS011;8716;52.268;20.968;2024-02-15T02:33:54;8.70;;;8.20;;
17199;SDS011;8716;52.268;20.968;2024-02-15T02:36:25;11.77;;;6.47;;
17199;SDS011;8716;52.268;20.968;2024-02-15T02:38:55;5.30;;;5.00;;
17199;SDS011;8716;52.268;20.968;2024-02-15T02:41:29;10.10;;;7.70;;
17199;SDS011;8716;52.268;20.968;2024-02-15T02:43:57;8.20;;;7.80;;
17199;SDS011;8716;52.268;20.968;2024-02-15T02:46:26;11.10;;;9.27;;
17199;SDS011;8716;52.268;20.968;2024-02-15T02:48:54;6.97;;;6.57;;
17199;SDS011;8716;52.268;20.968;2024-02-15T02:51:22;7.03;;;6.20;;
17199;SDS011;8716;52.268;20.968;2024-02-15T02:53:51;13.33;;;7.10;;
17199;SDS011;8716;52.268;20.968;2024-02-15T02:56:21;8.13;;;6.50;;
17199;SDS011;8716;52.268;20.968;2024-02-15T02:58:51;8.33;;;6.60;;
17199;SDS011;8716;52.268;20.968;2024-02-15T03:01:21;14.87;;;13.07;;
17199;SDS011;8716;52.268;20.968;2024-02-15T03:03:51;7.80;;;5.60;;
17199;SDS011;8716;52.268;20.968;2024-02-15T03:06:21;12.83;;;9.43;;
17199;SDS011;8716;52.268;20.968;2024-02-15T03:08:51;10.80;;;8.70;;
17199;SDS011;8716;52.268;20.968;2024-02-15T03:11:21;7.43;;;6.63;;
17199;SDS011;8716;52.268;20.968;2024-02-15T03:13:50;9.93;;;7.47;;
17199;SDS011;8716;52.268;20.968;2024-02-15T03:16:21;8.53;;;8.07;;
17199;SDS011;8716;52.268;20.968;2024-02-15T03:18:51;9.10;;;8.60;;
17199;SDS011;8716;52.268;20.968;2024-02-15T03:21:20;7.13;;;6.73;;
17199;SDS011;8716;52.268;20.968;2024-02-15T03:23:48;7.70;;;7.27;;
17199;SDS011;8716;52.268;20.968;2024-02-15T03:26:19;5.23;;;4.93;;
17199;SDS011;8716;52.268;20.968;2024-02-15T03:28:57;7.40;;;7.00;;
17199;SDS011;8716;52.268;20.968;2024-02-15T03:31:26;10.03;;;9.53;;
17199;SDS011;8716;52.268;20.968;2024-02-15T03:33:54;13.97;;;13.27;;
17199;SDS011;8716;52.268;20.968;2024-02-15T03:36:22;8.27;;;7.87;;
17199;SDS011;8716;52.268;20.968;2024-02-15T03:38:51;7.43;;;7.07;;
17199;SDS011;8716;52.268;20.968;2024-02-15T03:41:20;9.20;;;7.07;;
17199;SDS011;8716;52.268;20.968;2024-02-15T03:43:48;9.87;;;9.37;;
17199;SDS011;8716;52.268;20.968;2024-02-15T03:46:19;7.13;;;6.73;;
17199;SDS011;8716;52.268;20.968;2024-02-15T03:48:47;6.60;;;6.20;;
17199;SDS011;8716;52.268;20.968;2024-02-15T03:51:16;13.23;;;6.70;;
17199;SDS011;8716;52.268;20.968;2024-02-15T03:53:45;8.50;;;8.02;;
17199;SDS011;8716;52.268;20.968;2024-02-15T03:56:15;7.77;;;7.37;;
17199;SDS011;8716;52.268;20.968;2024-02-15T03:58:44;8.87;;;8.37;;
17199;SDS011;8716;52.268;20.968;2024-02-15T04:01:12;9.57;;;9.07;;
17199;SDS011;8716;52.268;20.968;2024-02-15T04:03:43;7.33;;;6.93;;
17199;SDS011;8716;52.268;20.968;2024-02-15T04:06:14;8.70;;;8.20;;
17199;SDS011;8716;52.268;20.968;2024-02-15T04:08:42;6.90;;;6.30;;
17199;SDS011;8716;52.268;20.968;2024-02-15T04:11:11;12.80;;;6.57;;
17199;SDS011;8716;52.268;20.968;2024-02-15T04:13:40;7.53;;;7.07;;
17199;SDS011;8716;52.268;20.968;2024-02-15T04:16:09;9.47;;;8.97;;
17199;SDS011;8716;52.268;20.968;2024-02-15T04:18:37;7.60;;;7.20;;
17199;SDS011;8716;52.268;20.968;2024-02-15T04:21:07;9.93;;;8.13;;
17199;SDS011;8716;52.268;20.968;2024-02-15T04:23:35;8.73;;;8.23;;
17199;SDS011;8716;52.268;20.968;2024-02-15T04:26:03;7.17;;;6.77;;
17199;SDS011;8716;52.268;20.968;2024-02-15T04:28:31;8.37;;;7.40;;
17199;SDS011;8716;52.268;20.968;2024-02-15T04:31:00;11.37;;;10.73;;
17199;SDS011;8716;52.268;20.968;2024-02-15T04:33:28;8.90;;;8.40;;
17199;SDS011;8716;52.268;20.968;2024-02-15T04:35:57;8.83;;;6.90;;
17199;SDS011;8716;52.268;20.968;2024-02-15T04:38:26;16.30;;;9.10;;
17199;SDS011;8716;52.268;20.968;2024-02-15T04:40:55;10.20;;;8.27;;
17199;SDS011;8716;52.268;20.968;2024-02-15T04:43:24;6.80;;;6.40;;
17199;SDS011;8716;52.268;20.968;2024-02-15T04:45:52;8.63;;;8.13;;
17199;SDS011;8716;52.268;20.968;2024-02-15T04:48:20;11.50;;;10.90;;
17199;SDS011;8716;52.268;20.968;2024-02-15T04:50:51;13.20;;;8.40;;
17199;SDS011;8716;52.268;20.968;2024-02-15T04:53:21;11.80;;;11.20;;
17199;SDS011;8716;52.268;20.968;2024-02-15T04:55:51;11.43;;;10.43;;
17199;SDS011;8716;52.268;20.968;2024-02-15T04:58:21;11.47;;;10.87;;
17199;SDS011;8716;52.268;20.968;2024-02-15T05:00:50;8.73;;;7.60;;
17199;SDS011;8716;52.268;20.968;2024-02-15T05:03:21;11.23;;;7.17;;
17199;SDS011;8716;52.268;20.968;2024-02-15T05:05:49;11.37;;;10.77;;
17199;SDS011;8716;52.268;20.968;2024-02-15T05:08:18;21.20;;;9.70;;
17199;SDS011;8716;52.268;20.968;2024-02-15T05:10:47;8.57;;;8.10;;
17199;SDS011;8716;52.268;20.968;2024-02-15T05:13:16;21.17;;;10.00;;
17199;SDS011;8716;52.268;20.968;2024-02-15T05:15:44;8.67;;;8.20;;
17199;SDS011;8716;52.268;20.968;2024-02-15T05:18:13;15.83;;;11.03;;
17199;SDS011;8716;52.268;20.968;2024-02-15T05:20:41;9.03;;;8.53;;
17199;SDS011;8716;52.268;20.968;2024-02-15T05:23:10;17.97;;;8.73;;
17199;SDS011;8716;52.268;20.968;2024-02-15T05:25:39;10.13;;;9.63;;
17199;SDS011;8716;52.268;20.968;2024-02-15T05:28:08;16.77;;;7.53;;
17199;SDS011;8716;52.268;20.968;2024-02-15T05:30:37;12.43;;;11.83;;
17199;SDS011;8716;52.268;20.968;2024-02-15T05:33:06;11.68;;;9.10;;
17199;SDS011;8716;52.268;20.968;2024-02-15T05:35:37;8.37;;;7.93;;
17199;SDS011;8716;52.268;20.968;2024-02-15T05:38:08;8.27;;;7.83;;
17199;SDS011;8716;52.268;20.968;2024-02-15T05:40:38;12.30;;;9.03;;
17199;SDS011;8716;52.268;20.968;2024-02-15T05:43:06;6.93;;;6.27;;
17199;SDS011;8716;52.268;20.968;2024-02-15T05:45:34;12.53;;;7.77;;
17199;SDS011;8716;52.268;20.968;2024-02-15T05:48:07;11.07;;;10.47;;
17199;SDS011;8716;52.268;20.968;2024-02-15T05:50:39;12.07;;;11.43;;
17199;SDS011;8716;52.268;20.968;2024-02-15T05:53:08;8.63;;;8.13;;
17199;SDS011;8716;52.268;20.968;2024-02-15T05:55:36;15.77;;;9.20;;
17199;SDS011;8716;52.268;20.968;2024-02-15T05:58:07;10.93;;;10.33;;
17199;SDS011;8716;52.268;20.968;2024-02-15T06:00:37;12.63;;;11.97;;
17199;SDS011;8716;52.268;20.968;2024-02-15T06:03:09;11.03;;;10.43;;
17199;SDS011;8716;52.268;20.968;2024-02-15T06:05:39;16.83;;;10.37;;
17199;SDS011;8716;52.268;20.968;2024-02-15T06:08:08;19.97;;;10.20;;
17199;SDS011;8716;52.268;20.968;2024-02-15T06:10:38;9.07;;;8.57;;
17199;SDS011;8716;52.268;20.968;2024-02-15T06:13:07;11.10;;;10.50;;
17199;SDS011;8716;52.268;20.968;2024-02-15T06:15:36;13.93;;;9.50;;
17199;SDS011;8716;52.268;20.968;2024-02-15T06:18:04;13.93;;;10.90;;
17199;SDS011;8716;52.268;20.968;2024-02-15T06:20:37;11.10;;;10.50;;
17199;SDS011;8716;52.268;20.968;2024-02-15T06:23:06;18.40;;;13.00;;
17199;SDS011;8716;52.268;20.968;2024-02-15T06:25:35;13.43;;;10.60;;
17199;SDS011;8716;52.268;20.968;2024-02-15T06:28:03;12.83;;;11.83;;
17199;SDS011;8716;52.268;20.968;2024-02-15T06:30:40;20.53;;;11.40;;
17199;SDS011;8716;52.268;20.968;2024-02-15T06:33:31;13.93;;;13.23;;
17199;SDS011;8716;52.268;20.968;2024-02-15T06:36:33;12.33;;;11.73;;
17199;SDS011;8716;52.268;20.968;2024-02-15T06:39:18;9.20;;;8.70;;
17199;SDS011;8716;52.268;20.968;2024-02-15T06:42:05;26.13;;;15.27;;
17199;SDS011;8716;52.268;20.968;2024-02-15T06:44:34;9.13;;;8.60;;
17199;SDS011;8716;52.268;20.968;2024-02-15T06:47:03;21.40;;;14.70;;
17199;SDS011;8716;52.268;20.968;2024-02-15T06:49:31;14.90;;;13.07;;
17199;SDS011;8716;52.268;20.968;2024-02-15T06:52:02;15.40;;;14.60;;
17199;SDS011;8716;52.268;20.968;2024-02-15T06:54:31;10.37;;;9.83;;
17199;SDS011;8716;52.268;20.968;2024-02-15T06:56:59;15.17;;;14.37;;
17199;SDS011;8716;52.268;20.968;2024-02-15T06:59:28;14.83;;;10.53;;
17199;SDS011;8716;52.268;20.968;2024-02-15T07:01:58;13.52;;;12.82;;
17199;SDS011;8716;52.268;20.968;2024-02-15T07:04:26;15.00;;;14.20;;
17199;SDS011;8716;52.268;20.968;2024-02-15T07:06:56;15.00;;;14.23;;
17199;SDS011;8716;52.268;20.968;2024-02-15T07:09:26;13.87;;;13.17;;
17199;SDS011;8716;52.268;20.968;2024-02-15T07:11:56;17.13;;;13.40;;
17199;SDS011;8716;52.268;20.968;2024-02-15T07:14:26;15.57;;;14.77;;
17199;SDS011;8716;52.268;20.968;2024-02-15T07:16:55;19.13;;;18.17;;
17199;SDS011;8716;52.268;20.968;2024-02-15T07:19:25;16.43;;;15.37;;
17199;SDS011;8716;52.268;20.968;2024-02-15T07:21:54;13.77;;;13.07;;
17199;SDS011;8716;52.268;20.968;2024-02-15T07:24:23;16.43;;;15.37;;
17199;SDS011;8716;52.268;20.968;2024-02-15T07:26:54;12.50;;;11.87;;
17199;SDS011;8716;52.268;20.968;2024-02-15T07:29:23;16.50;;;15.07;;
17199;SDS011;8716;52.268;20.968;2024-02-15T07:31:52;18.73;;;17.83;;
17199;SDS011;8716;52.268;20.968;2024-02-15T07:34:21;22.15;;;15.93;;
17199;SDS011;8716;52.268;20.968;2024-02-15T07:36:49;16.10;;;15.30;;
17199;SDS011;8716;52.268;20.968;2024-02-15T07:39:18;14.90;;;14.13;;
17199;SDS011;8716;52.268;20.968;2024-02-15T07:41:52;13.97;;;13.27;;
17199;SDS011;8716;52.268;20.968;2024-02-15T07:44:21;15.03;;;14.23;;
17199;SDS011;8716;52.268;20.968;2024-02-15T07:46:52;21.13;;;15.65;;
17199;SDS011;8716;52.268;20.968;2024-02-15T07:49:20;18.90;;;16.00;;
17199;SDS011;8716;52.268;20.968;2024-02-15T07:51:49;13.93;;;13.23;;
17199;SDS011;8716;52.268;20.968;2024-02-15T07:54:20;20.43;;;16.63;;
17199;SDS011;8716;52.268;20.968;2024-02-15T07:56:48;20.87;;;19.53;;
17199;SDS011;8716;52.268;20.968;2024-02-15T07:59:20;17.07;;;16.20;;
17199;SDS011;8716;52.268;20.968;2024-02-15T08:01:48;21.03;;;17.07;;
17199;SDS011;8716;52.268;20.968;2024-02-15T08:04:17;20.63;;;18.83;;
17199;SDS011;8716;52.268;20.968;2024-02-15T08:06:46;20.47;;;19.47;;
17199;SDS011;8716;52.268;20.968;2024-02-15T08:09:16;13.27;;;12.57;;
17199;SDS011;8716;52.268;20.968;2024-02-15T08:11:47;15.30;;;14.50;;
17199;SDS011;8716;52.268;20.968;2024-02-15T08:14:16;25.10;;;21.03;;
17199;SDS011;8716;52.268;20.968;2024-02-15T08:16:48;13.80;;;13.10;;
17199;SDS011;8716;52.268;20.968;2024-02-15T08:19:16;16.43;;;15.63;;
17199;SDS011;8716;52.268;20.968;2024-02-15T08:21:45;18.50;;;17.60;;
17199;SDS011;8716;52.268;20.968;2024-02-15T08:24:17;24.30;;;13.77;;
17199;SDS011;8716;52.268;20.968;2024-02-15T08:26:46;23.83;;;17.70;;
17199;SDS011;8716;52.268;20.968;2024-02-15T08:29:17;13.83;;;13.13;;
17199;SDS011;8716;52.268;20.968;2024-02-15T08:31:45;18.27;;;17.37;;
17199;SDS011;8716;52.268;20.968;2024-02-15T08:34:16;21.50;;;20.40;;
17199;SDS011;8716;52.268;20.968;2024-02-15T08:36:46;16.10;;;14.37;;
17199;SDS011;8716;52.268;20.968;2024-02-15T08:39:15;17.80;;;16.90;;
17199;SDS011;8716;52.268;20.968;2024-02-15T08:41:44;22.97;;;21.53;;
17199;SDS011;8716;52.268;20.968;2024-02-15T08:44:12;30.80;;;14.70;;
17199;SDS011;8716;52.268;20.968;2024-02-15T08:46:42;23.17;;;17.10;;
17199;SDS011;8716;52.268;20.968;2024-02-15T08:49:10;17.67;;;16.77;;
17199;SDS011;8716;52.268;20.968;2024-02-15T08:51:41;17.20;;;16.33;;
17199;SDS011;8716;52.268;20.968;2024-02-15T08:54:10;16.20;;;15.40;;
17199;SDS011;8716;52.268;20.968;2024-02-15T08:56:38;17.97;;;16.63;;
17199;SDS011;8716;52.268;20.968;2024-02-15T08:59:07;15.60;;;14.80;;
17199;SDS011;8716;52.268;20.968;2024-02-15T09:01:35;15.43;;;14.63;;
17199;SDS011;8716;52.268;20.968;2024-02-15T09:04:04;12.57;;;11.93;;
17199;SDS011;8716;52.268;20.968;2024-02-15T09:06:32;19.93;;;16.53;;
17199;SDS011;8716;52.268;20.968;2024-02-15T09:09:02;19.93;;;16.13;;
17199;SDS011;8716;52.268;20.968;2024-02-15T09:11:30;23.00;;;15.90;;
17199;SDS011;8716;52.268;20.968;2024-02-15T09:14:00;17.03;;;16.13;;
17199;SDS011;8716;52.268;20.968;2024-02-15T09:16:28;24.53;;;15.40;;
17199;SDS011;8716;52.268;20.968;2024-02-15T09:18:58;16.27;;;15.47;;
17199;SDS011;8716;52.268;20.968;2024-02-15T09:21:30;16.23;;;15.40;;
17199;SDS011;8716;52.268;20.968;2024-02-15T09:24:00;30.83;;;17.63;;
17199;SDS011;8716;52.268;20.968;2024-02-15T09:26:30;17.73;;;16.83;;
17199;SDS011;8716;52.268;20.968;2024-02-15T09:28:58;13.70;;;13.00;;
17199;SDS011;8716;52.268;20.968;2024-02-15T09:31:29;20.97;;;17.70;;
17199;SDS011;8716;52.268;20.968;2024-02-15T09:33:57;16.87;;;16.00;;
17199;SDS011;8716;52.268;20.968;2024-02-15T09:36:26;18.87;;;13.23;;
17199;SDS011;8716;52.268;20.968;2024-02-15T09:38:55;14.57;;;13.83;;
17199;SDS011;8716;52.268;20.968;2024-02-15T09:41:26;16.20;;;14.83;;
17199;SDS011;8716;52.268;20.968;2024-02-15T09:43:55;23.47;;;15.70;;
17199;SDS011;8716;52.268;20.968;2024-02-15T09:46:25;21.87;;;20.77;;
17199;SDS011;8716;52.268;20.968;2024-02-15T09:48:56;20.20;;;17.60;;
17199;SDS011;8716;52.268;20.968;2024-02-15T09:51:26;25.57;;;15.10;;
17199;SDS011;8716;52.268;20.968;2024-02-15T09:53:57;16.83;;;15.97;;
17199;SDS011;8716;52.268;20.968;2024-02-15T09:56:29;26.73;;;23.67;;
17199;SDS011;8716;52.268;20.968;2024-02-15T09:58:59;18.47;;;17.53;;
17199;SDS011;8716;52.268;20.968;2024-02-15T10:01:30;18.37;;;17.47;;
17199;SDS011;8716;52.268;20.968;2024-02-15T10:03:59;22.97;;;18.33;;
17199;SDS011;8716;52.268;20.968;2024-02-15T10:06:33;14.10;;;11.57;;
17199;SDS011;8716;52.268;20.968;2024-02-15T10:11:56;18.50;;;15.37;;
17199;SDS011;8716;52.268;20.968;2024-02-15T10:14:25;21.03;;;16.30;;
17199;SDS011;8716;52.268;20.968;2024-02-15T10:16:54;17.17;;;15.03;;
17199;SDS011;8716;52.268;20.968;2024-02-15T10:19:23;21.00;;;15.90;;
17199;SDS011;8716;52.268;20.968;2024-02-15T10:21:52;18.33;;;17.43;;
17199;SDS011;8716;52.268;20.968;2024-02-15T10:24:23;14.93;;;12.27;;
17199;SDS011;8716;52.268;20.968;2024-02-15T10:26:52;19.50;;;15.27;;
17199;SDS011;8716;52.268;20.968;2024-02-15T10:29:31;16.93;;;15.57;;
17199;SDS011;8716;52.268;20.968;2024-02-15T10:32:00;14.73;;;13.90;;
17199;SDS011;8716;52.268;20.968;2024-02-15T10:34:29;17.40;;;16.50;;
17199;SDS011;8716;52.268;20.968;2024-02-15T10:37:10;20.60;;;16.20;;
17199;SDS011;8716;52.268;20.968;2024-02-15T10:39:40;13.23;;;11.93;;
17199;SDS011;8716;52.268;20.968;2024-02-15T10:42:09;12.23;;;11.63;;
17199;SDS011;8716;52.268;20.968;2024-02-15T10:44:38;14.63;;;12.77;;
17199;SDS011;8716;52.268;20.968;2024-02-15T10:47:07;17.67;;;16.70;;
17199;SDS011;8716;52.268;20.968;2024-02-15T10:49:37;27.77;;;16.17;;
17199;SDS011;8716;52.268;20.968;2024-02-15T10:52:06;16.33;;;13.43;;
17199;SDS011;8716;52.268;20.968;2024-02-15T10:54:41;26.43;;;20.80;;
17199;SDS011;8716;52.268;20.968;2024-02-15T10:57:16;18.20;;;17.30;;
17199;SDS011;8716;52.268;20.968;2024-02-15T10:59:53;39.37;;;16.90;;
17199;SDS011;8716;52.268;20.968;2024-02-15T11:02:28;23.00;;;18.93;;
17199;SDS011;8716;52.268;20.968;2024-02-15T11:05:01;17.93;;;17.03;;
17199;SDS011;8716;52.268;20.968;2024-02-15T11:07:36;17.67;;;15.60;;
17199;SDS011;8716;52.268;20.968;2024-02-15T11:10:06;21.40;;;20.30;;
17199;SDS011;8716;52.268;20.968;2024-02-15T11:12:41;23.00;;;17.20;;
17199;SDS011;8716;52.268;20.968;2024-02-15T11:18:08;18.37;;;14.70;;
17199;SDS011;8716;52.268;20.968;2024-02-15T11:20:46;24.93;;;21.33;;
17199;SDS011;8716;52.268;20.968;2024-02-15T11:23:26;19.53;;;18.57;;
17199;SDS011;8716;52.268;20.968;2024-02-15T11:25:58;18.10;;;17.20;;
17199;SDS011;8716;52.268;20.968;2024-02-15T11:28:38;20.27;;;19.27;;
17199;SDS011;8716;52.268;20.968;2024-02-15T11:31:07;20.03;;;16.83;;
17199;SDS011;8716;52.268;20.968;2024-02-15T11:37:03;19.60;;;18.60;;
17199;SDS011;8716;52.268;20.968;2024-02-15T11:39:39;21.13;;;20.07;;
17199;SDS011;8716;52.268;20.968;2024-02-15T11:42:27;17.73;;;16.83;;
17199;SDS011;8716;52.268;20.968;2024-02-15T11:45:05;14.40;;;13.67;;
17199;SDS011;8716;52.268;20.968;2024-02-15T11:47:36;14.32;;;13.63;;
17199;SDS011;8716;52.268;20.968;2024-02-15T11:50:07;20.10;;;16.40;;
17199;SDS011;8716;52.268;20.968;2024-02-15T11:52:40;19.63;;;18.40;;
17199;SDS011;8716;52.268;20.968;2024-02-15T11:55:09;17.70;;;16.80;;
17199;SDS011;8716;52.268;20.968;2024-02-15T11:57:39;16.27;;;15.47;;
17199;SDS011;8716;52.268;20.968;2024-02-15T12:00:23;17.77;;;16.87;;
17199;SDS011;8716;52.268;20.968;2024-02-15T12:03:09;17.90;;;17.00;;
17199;SDS011;8716;52.268;20.968;2024-02-15T12:05:55;23.90;;;22.03;;
17199;SDS011;8716;52.268;20.968;2024-02-15T12:08:43;16.63;;;15.70;;
17199;SDS011;8716;52.268;20.968;2024-02-15T12:11:30;18.53;;;15.63;;
17199;SDS011;8716;52.268;20.968;2024-02-15T12:14:16;17.47;;;14.30;;
17199;SDS011;8716;52.268;20.968;2024-02-15T12:17:03;16.43;;;15.60;;
17199;SDS011;8716;52.268;20.968;2024-02-15T12:19:50;19.73;;;18.23;;
17199;SDS011;8716;52.268;20.968;2024-02-15T12:22:21;17.47;;;16.20;;
17199;SDS011;8716;52.268;20.968;2024-02-15T12:24:53;17.77;;;16.87;;
17199;SDS011;8716;52.268;20.968;2024-02-15T12:27:22;24.73;;;23.50;;
17199;SDS011;8716;52.268;20.968;2024-02-15T12:29:54;38.97;;;16.77;;
17199;SDS011;8716;52.268;20.968;2024-02-15T12:32:25;17.83;;;16.93;;
17199;SDS011;8716;52.268;20.968;2024-02-15T12:35:09;21.90;;;17.47;;
17199;SDS011;8716;52.268;20.968;2024-02-15T12:37:42;24.97;;;19.83;;
17199;SDS011;8716;52.268;20.968;2024-02-15T12:40:11;24.97;;;18.73;;
17199;SDS011;8716;52.268;20.968;2024-02-15T12:42:42;23.37;;;17.10;;
17199;SDS011;8716;52.268;20.968;2024-02-15T12:45:15;18.73;;;17.80;;
17199;SDS011;8716;52.268;20.968;2024-02-15T12:47:50;18.60;;;17.60;;
17199;SDS011;8716;52.268;20.968;2024-02-15T12:50:20;18.37;;;17.47;;
17199;SDS011;8716;52.268;20.968;2024-02-15T12:52:50;22.90;;;21.00;;
17199;SDS011;8716;52.268;20.968;2024-02-15T12:55:21;19.80;;;18.80;;
17199;SDS011;8716;52.268;20.968;2024-02-15T12:57:51;21.57;;;20.47;;
17199;SDS011;8716;52.268;20.968;2024-02-15T13:00:24;22.40;;;21.30;;
17199;SDS011;8716;52.268;20.968;2024-02-15T13:02:57;23.87;;;16.97;;
17199;SDS011;8716;52.268;20.968;2024-02-15T13:05:30;18.73;;;17.80;;
17199;SDS011;8716;52.268;20.968;2024-02-15T13:07:59;16.07;;;15.27;;
17199;SDS011;8716;52.268;20.968;2024-02-15T13:10:29;22.33;;;17.37;;
17199;SDS011;8716;52.268;20.968;2024-02-15T13:12:58;30.87;;;23.40;;
17199;SDS011;8716;52.268;20.968;2024-02-15T13:15:26;19.00;;;18.00;;
17199;SDS011;8716;52.268;20.968;2024-02-15T13:18:02;22.10;;;21.00;;
17199;SDS011;8716;52.268;20.968;2024-02-15T13:20:33;26.37;;;25.07;;
17199;SDS011;8716;52.268;20.968;2024-02-15T13:23:05;14.90;;;14.10;;
17199;SDS011;8716;52.268;20.968;2024-02-15T13:25:42;16.53;;;15.70;;
17199;SDS011;8716;52.268;20.968;2024-02-15T13:28:12;20.37;;;19.37;;
17199;SDS011;8716;52.268;20.968;2024-02-15T13:30:41;21.77;;;20.70;;
17199;SDS011;8716;52.268;20.968;2024-02-15T13:33:12;20.20;;;19.10;;
17199;SDS011;8716;52.268;20.968;2024-02-15T13:35:45;19.30;;;18.30;;
17199;SDS011;8716;52.268;20.968;2024-02-15T13:38:14;17.80;;;16.90;;
17199;SDS011;8716;52.268;20.968;2024-02-15T13:40:51;21.70;;;19.40;;
17199;SDS011;8716;52.268;20.968;2024-02-15T13:43:22;21.50;;;20.43;;
17199;SDS011;8716;52.268;20.968;2024-02-15T13:45:51;15.60;;;14.80;;
17199;SDS011;8716;52.268;20.968;2024-02-15T13:48:22;21.23;;;20.17;;
17199;SDS011;8716;52.268;20.968;2024-02-15T13:50:53;24.10;;;18.80;;
17199;SDS011;8716;52.268;20.968;2024-02-15T13:53:22;22.30;;;20.80;;
17199;SDS011;8716;52.268;20.968;2024-02-15T13:55:55;23.07;;;19.30;;
17199;SDS011;8716;52.268;20.968;2024-02-15T13:58:23;19.00;;;18.03;;
17199;SDS011;8716;52.268;20.968;2024-02-15T14:00:52;15.10;;;14.00;;
17199;SDS011;8716;52.268;20.968;2024-02-15T14:03:22;20.03;;;19.03;;
17199;SDS011;8716;52.268;20.968;2024-02-15T14:05:51;28.73;;;21.23;;
17199;SDS011;8716;52.268;20.968;2024-02-15T14:08:24;17.20;;;16.30;;
17199;SDS011;8716;52.268;20.968;2024-02-15T14:10:52;14.57;;;13.30;;
17199;SDS011;8716;52.268;20.968;2024-02-15T14:13:22;17.57;;;15.80;;
17199;SDS011;8716;52.268;20.968;2024-02-15T14:15:51;19.77;;;18.77;;
17199;SDS011;8716;52.268;20.968;2024-02-15T14:18:21;30.70;;;14.57;;
17199;SDS011;8716;52.268;20.968;2024-02-15T14:20:50;17.20;;;15.30;;
17199;SDS011;8716;52.268;20.968;2024-02-15T14:23:19;13.03;;;12.33;;
17199;SDS011;8716;52.268;20.968;2024-02-15T14:25:47;9.37;;;8.87;;
17199;SDS011;8716;52.268;20.968;2024-02-15T14:28:16;11.67;;;11.07;;
17199;SDS011;8716;52.268;20.968;2024-02-15T14:30:44;14.53;;;12.27;;
17199;SDS011;8716;52.268;20.968;2024-02-15T14:33:31;14.50;;;11.47;;
17199;SDS011;8716;52.268;20.968;2024-02-15T14:36:01;15.90;;;11.27;;
17199;SDS011;8716;52.268;20.968;2024-02-15T14:38:31;17.80;;;12.17;;
17199;SDS011;8716;52.268;20.968;2024-02-15T14:41:03;13.63;;;12.93;;
17199;SDS011;8716;52.268;20.968;2024-02-15T14:43:35;16.57;;;15.77;;
17199;SDS011;8716;52.268;20.968;2024-02-15T14:46:06;15.50;;;14.70;;
17199;SDS011;8716;52.268;20.968;2024-02-15T14:48:38;16.00;;;15.20;;
17199;SDS011;8716;52.268;20.968;2024-02-15T14:51:08;18.47;;;16.10;;
17199;SDS011;8716;52.268;20.968;2024-02-15T14:53:37;15.10;;;11.30;;
17199;SDS011;8716;52.268;20.968;2024-02-15T14:56:05;14.63;;;13.90;;
17199;SDS011;8716;52.268;20.968;2024-02-15T14:58:34;14.37;;;13.67;;
17199;SDS011;8716;52.268;20.968;2024-02-15T15:01:03;18.63;;;16.30;;